createdAt,value
2018-03-20T00:00:47.530Z,22.93
2018-03-20T00:03:17.031Z,22.91
2018-03-20T00:05:46.474Z,22.89
2018-03-20T00:08:15.489Z,22.80
2018-03-20T00:10:44.937Z,22.88
2018-03-20T00:13:14.379Z,22.90
2018-03-20T00:15:43.246Z,22.69
2018-03-20T00:18:12.490Z,22.66
2018-03-20T00:20:41.747Z,22.62
2018-03-20T00:23:11.095Z,22.58
2018-03-20T00:25:40.627Z,22.54
2018-03-20T00:28:10.000Z,22.48
2018-03-20T00:30:39.499Z,22.64
2018-03-20T00:33:09.129Z,22.70
2018-03-20T00:35:38.478Z,22.62
2018-03-20T00:38:07.467Z,22.64
2018-03-20T00:40:36.725Z,22.63
2018-03-20T00:43:06.062Z,22.45
2018-03-20T00:45:35.431Z,22.49
2018-03-20T00:48:04.741Z,22.50
2018-03-20T00:50:33.971Z,22.52
2018-03-20T00:53:03.392Z,22.36
2018-03-20T00:55:32.760Z,22.46
2018-03-20T00:58:02.120Z,22.57
2018-03-20T01:00:31.388Z,22.54
2018-03-20T01:03:00.695Z,22.48
2018-03-20T01:05:30.148Z,22.52
2018-03-20T01:07:59.540Z,22.27
2018-03-20T01:10:28.766Z,22.37
2018-03-20T01:12:57.901Z,22.37
2018-03-20T01:15:26.853Z,22.16
2018-03-20T01:17:56.094Z,22.31
2018-03-20T01:20:25.333Z,22.49
2018-03-20T01:22:54.673Z,22.54
2018-03-20T01:25:25.248Z,22.65
2018-03-20T01:27:54.503Z,22.77
2018-03-20T01:30:23.884Z,23.03
2018-03-20T01:32:53.314Z,23.25
2018-03-20T01:35:22.660Z,23.31
2018-03-20T01:37:52.062Z,23.46
2018-03-20T01:40:21.298Z,23.52
2018-03-20T01:42:50.194Z,23.56
2018-03-20T01:45:19.307Z,23.79
2018-03-20T01:47:48.426Z,23.94
2018-03-20T01:50:17.644Z,24.14
2018-03-20T01:52:47.267Z,24.26
2018-03-20T02:12:41.934Z,25.92
2018-03-20T02:15:37.076Z,26.08
2018-03-20T02:55:05.075Z,28.91
2018-03-20T02:57:40.286Z,29.09
2018-03-20T03:00:09.703Z,28.96
2018-03-20T03:02:38.960Z,28.87
2018-03-20T03:05:08.331Z,28.99
2018-03-20T03:07:37.450Z,29.34
2018-03-20T03:10:06.779Z,29.11
2018-03-20T03:12:36.119Z,29.82
2018-03-20T03:15:05.313Z,30.06
2018-03-20T03:17:34.594Z,30.33
2018-03-20T03:20:04.156Z,30.37
2018-03-20T03:22:33.474Z,30.22
2018-03-20T03:25:02.504Z,30.70
2018-03-20T03:27:31.762Z,30.42
2018-03-20T03:30:01.233Z,30.76
2018-03-20T03:32:30.235Z,30.42
2018-03-20T03:35:00.062Z,31.27
2018-03-20T03:37:29.641Z,31.33
2018-03-20T03:39:58.571Z,31.74
2018-03-20T03:42:27.634Z,32.03
2018-03-20T03:44:57.021Z,32.36
2018-03-20T03:47:26.307Z,32.11
2018-03-20T03:49:55.603Z,32.46
2018-03-20T03:52:26.564Z,32.47
2018-03-20T03:54:56.040Z,31.84
2018-03-20T03:57:25.391Z,32.15
2018-03-20T03:59:54.906Z,33.16
2018-03-20T04:02:24.608Z,33.48
2018-03-20T04:04:53.905Z,33.81
2018-03-20T04:07:23.126Z,33.76
2018-03-20T04:09:52.488Z,33.26
2018-03-20T04:12:21.763Z,33.57
2018-03-20T04:14:51.215Z,33.70
2018-03-20T04:17:20.302Z,33.78
2018-03-20T04:19:49.891Z,34.08
2018-03-20T04:22:19.569Z,34.03
2018-03-20T04:24:48.612Z,34.41
2018-03-20T04:27:18.304Z,34.20
2018-03-20T04:29:47.287Z,34.90
2018-03-20T04:32:16.755Z,34.94
2018-03-20T04:34:46.262Z,35.04
2018-03-20T04:37:16.207Z,35.27
2018-03-20T04:39:45.442Z,35.58
2018-03-20T04:42:14.561Z,36.02
2018-03-20T04:44:44.044Z,35.84
2018-03-20T04:47:13.835Z,35.74
2018-03-20T04:49:43.206Z,36.21
2018-03-20T04:52:12.583Z,36.41
2018-03-20T04:54:41.974Z,36.55
2018-03-20T04:57:11.100Z,35.31
2018-03-20T04:59:40.465Z,35.57
2018-03-20T05:02:10.020Z,36.09
2018-03-20T05:04:39.266Z,35.51
2018-03-20T05:07:09.254Z,36.52
2018-03-20T05:09:38.545Z,35.47
2018-03-20T05:12:07.919Z,35.55
2018-03-20T05:14:37.236Z,36.51
2018-03-20T05:17:06.487Z,36.46
2018-03-20T05:23:01.223Z,35.96
2018-03-20T05:25:30.439Z,37.39
2018-03-20T05:27:59.912Z,37.00
2018-03-20T05:30:29.499Z,36.52
2018-03-20T05:32:59.218Z,36.65
2018-03-20T05:35:28.709Z,36.79
2018-03-20T05:37:58.551Z,37.04
2018-03-20T05:40:27.997Z,36.97
2018-03-20T05:42:57.387Z,37.45
2018-03-20T05:45:26.599Z,37.06
2018-03-20T05:48:03.321Z,36.85
2018-03-20T05:53:38.194Z,37.25
2018-03-20T05:56:07.690Z,37.24
2018-03-20T05:58:37.051Z,37.70
2018-03-20T06:01:06.122Z,37.57
2018-03-20T06:03:35.374Z,37.76
2018-03-20T06:06:04.693Z,37.28
2018-03-20T06:08:34.238Z,37.67
2018-03-20T06:11:03.580Z,37.73
2018-03-20T06:13:32.948Z,37.43
2018-03-20T06:16:02.162Z,37.72
2018-03-20T06:18:31.141Z,37.14
2018-03-20T06:21:00.313Z,37.67
2018-03-20T06:23:30.139Z,37.86
2018-03-20T06:25:59.295Z,38.01
2018-03-20T06:28:28.557Z,37.89
2018-03-20T06:30:58.136Z,37.55
2018-03-20T06:33:27.435Z,37.59
2018-03-20T06:35:56.599Z,38.34
2018-03-20T06:38:25.954Z,37.09
2018-03-20T06:40:55.411Z,37.33
2018-03-20T06:43:24.456Z,37.99
2018-03-20T06:45:53.992Z,37.70
2018-03-20T06:48:23.369Z,37.41
2018-03-20T06:50:52.857Z,37.54
2018-03-20T06:53:22.344Z,37.44
2018-03-20T06:55:51.435Z,36.93
2018-03-20T06:58:21.155Z,36.89
2018-03-20T07:00:50.047Z,37.50
2018-03-20T07:03:19.096Z,36.53
2018-03-20T07:05:48.212Z,36.39
2018-03-20T07:08:17.269Z,36.69
2018-03-20T07:10:46.414Z,36.03
2018-03-20T07:13:15.449Z,36.37
2018-03-20T07:15:44.581Z,37.59
2018-03-20T07:18:13.890Z,36.50
2018-03-20T07:20:43.216Z,36.59
2018-03-20T07:23:12.436Z,36.34
2018-03-20T07:25:41.716Z,37.32
2018-03-20T07:28:10.925Z,36.95
2018-03-20T07:30:40.350Z,37.03
2018-03-20T07:33:09.908Z,36.24
2018-03-20T07:35:39.500Z,37.57
2018-03-20T07:38:08.728Z,37.45
2018-03-20T07:40:38.843Z,37.66
2018-03-20T07:43:08.221Z,37.64
2018-03-20T07:45:37.458Z,37.68
2018-03-20T07:48:06.510Z,38.14
2018-03-20T07:50:35.846Z,37.78
2018-03-20T07:53:05.345Z,37.58
2018-03-20T07:55:34.426Z,37.35
2018-03-20T07:58:05.106Z,37.59
2018-03-20T08:00:34.271Z,37.85
2018-03-20T08:03:03.413Z,37.76
2018-03-20T08:05:32.591Z,37.75
2018-03-20T08:08:01.896Z,37.43
2018-03-20T08:13:22.132Z,37.69
2018-03-20T08:15:51.362Z,37.81
2018-03-20T08:18:20.562Z,37.21
2018-03-20T08:20:49.749Z,37.42
2018-03-20T08:23:19.175Z,37.37
2018-03-20T08:25:48.645Z,37.64
2018-03-20T08:28:18.177Z,37.28
2018-03-20T08:30:47.465Z,37.21
2018-03-20T08:33:17.169Z,36.59
2018-03-20T08:35:47.619Z,37.18
2018-03-20T08:38:17.000Z,37.23
2018-03-20T08:40:46.835Z,37.12
2018-03-20T08:43:18.225Z,36.82
2018-03-20T08:45:48.551Z,37.35
2018-03-20T08:48:17.903Z,36.65
2018-03-20T08:50:47.465Z,36.81
2018-03-20T08:53:17.141Z,36.61
2018-03-20T08:55:46.591Z,36.86
2018-03-20T08:58:16.240Z,36.95
2018-03-20T09:00:45.770Z,36.50
2018-03-20T09:03:15.706Z,36.73
2018-03-20T09:05:45.179Z,36.37
2018-03-20T09:08:15.501Z,36.62
2018-03-20T09:10:46.404Z,35.69
2018-03-20T09:13:16.919Z,36.10
2018-03-20T09:15:47.382Z,36.22
2018-03-20T09:18:17.422Z,36.27
2018-03-20T09:20:47.369Z,36.44
2018-03-20T09:23:17.013Z,36.22
2018-03-20T09:25:46.621Z,36.35
2018-03-20T09:28:15.964Z,36.63
2018-03-20T09:30:45.368Z,35.67
2018-03-20T09:33:14.775Z,35.87
2018-03-20T09:35:44.694Z,36.00
2018-03-20T09:38:13.561Z,36.14
2018-03-20T09:40:42.943Z,36.04
2018-03-20T09:43:12.639Z,35.83
2018-03-20T09:45:41.644Z,35.81
2018-03-20T09:48:11.156Z,35.46
2018-03-20T09:50:40.732Z,35.89
2018-03-20T09:53:10.050Z,35.50
2018-03-20T09:55:39.470Z,35.22
2018-03-20T09:58:09.033Z,35.37
2018-03-20T10:00:38.424Z,35.76
2018-03-20T10:03:07.552Z,35.31
2018-03-20T10:05:37.351Z,35.52
2018-03-20T10:08:06.679Z,35.70
2018-03-20T10:10:35.674Z,35.52
2018-03-20T10:13:05.367Z,35.65
2018-03-20T10:15:34.712Z,35.60
2018-03-20T10:18:05.441Z,35.45
2018-03-20T10:20:35.562Z,35.50
2018-03-20T10:23:04.655Z,35.46
2018-03-20T10:25:35.083Z,35.41
2018-03-20T10:28:04.351Z,35.44
2018-03-20T10:30:33.802Z,35.99
2018-03-20T10:33:03.303Z,35.63
2018-03-20T10:38:27.392Z,35.34
2018-03-20T10:40:56.287Z,35.15
2018-03-20T10:45:58.886Z,35.10
2018-03-20T10:48:28.222Z,34.93
2018-03-20T10:50:57.644Z,34.75
2018-03-20T10:53:27.160Z,34.68
2018-03-20T10:55:56.536Z,34.66
2018-03-20T10:58:26.038Z,35.05
2018-03-20T11:01:01.027Z,34.96
2018-03-20T11:03:30.272Z,34.92
2018-03-20T11:05:59.987Z,34.83
2018-03-20T11:08:29.490Z,34.84
2018-03-20T11:10:59.713Z,34.89
2018-03-20T11:13:29.243Z,35.00
2018-03-20T11:15:58.675Z,34.82
2018-03-20T11:18:28.084Z,35.04
2018-03-20T11:20:57.185Z,34.75
2018-03-20T11:23:26.670Z,34.79
2018-03-20T11:25:55.963Z,34.54
2018-03-20T11:28:25.434Z,34.53
2018-03-20T11:30:55.694Z,34.73
2018-03-20T11:33:26.262Z,34.83
2018-03-20T11:35:58.296Z,34.77
2018-03-20T11:38:28.306Z,34.74
2018-03-20T11:40:58.845Z,34.83
2018-03-20T11:43:30.381Z,34.78
2018-03-20T11:45:59.724Z,34.70
2018-03-20T11:48:28.854Z,34.59
2018-03-20T11:50:58.307Z,34.64
2018-03-20T11:53:27.634Z,34.57
2018-03-20T11:55:57.134Z,34.50
2018-03-20T11:58:26.624Z,34.32
2018-03-20T12:00:56.469Z,34.36
2018-03-20T12:03:25.962Z,34.41
2018-03-20T12:05:55.529Z,34.21
2018-03-20T12:08:36.598Z,34.14
2018-03-20T12:11:06.064Z,34.25
2018-03-20T12:13:35.348Z,34.02
2018-03-20T12:16:04.779Z,33.94
2018-03-20T12:18:34.129Z,33.84
2018-03-20T12:21:03.391Z,33.73
2018-03-20T12:23:32.554Z,33.63
2018-03-20T12:26:01.577Z,33.54
2018-03-20T12:28:30.761Z,33.47
2018-03-20T12:31:00.080Z,33.46
2018-03-20T12:33:29.228Z,33.58
2018-03-20T12:35:58.482Z,33.46
2018-03-20T12:38:28.063Z,33.43
2018-03-20T12:40:57.735Z,33.39
2018-03-20T12:43:26.836Z,33.27
2018-03-20T12:45:56.316Z,33.27
2018-03-20T12:48:25.611Z,33.18
2018-03-20T12:50:55.225Z,32.99
2018-03-20T12:53:24.481Z,32.93
2018-03-20T12:55:53.837Z,32.77
2018-03-20T12:58:24.653Z,32.66
2018-03-20T13:00:56.302Z,32.56
2018-03-20T13:03:26.347Z,32.53
2018-03-20T13:05:55.946Z,32.45
2018-03-20T13:08:25.476Z,32.41
2018-03-20T13:10:54.785Z,32.21
2018-03-20T13:13:24.363Z,32.22
2018-03-20T13:15:53.669Z,32.18
2018-03-20T13:18:22.732Z,32.13
2018-03-20T13:20:52.040Z,32.08
2018-03-20T13:23:21.410Z,32.05
2018-03-20T13:25:50.602Z,31.90
2018-03-20T13:28:20.210Z,31.94
2018-03-20T13:30:49.731Z,31.83
2018-03-20T13:33:19.192Z,31.81
2018-03-20T13:35:48.781Z,31.76
2018-03-20T13:38:19.337Z,31.57
2018-03-20T13:40:50.572Z,31.49
2018-03-20T13:43:21.989Z,31.52
2018-03-20T13:45:54.081Z,31.52
2018-03-20T13:48:25.635Z,31.48
2018-03-20T13:50:58.679Z,31.26
2018-03-20T13:53:28.516Z,31.36
2018-03-20T13:55:58.078Z,31.39
2018-03-20T13:58:27.440Z,31.42
2018-03-20T14:00:57.200Z,31.37
2018-03-20T14:03:26.669Z,31.39
2018-03-20T14:05:56.117Z,31.31
2018-03-20T14:08:25.531Z,31.30
2018-03-20T14:10:54.901Z,31.21
2018-03-20T14:13:23.919Z,31.28
2018-03-20T14:15:53.221Z,31.14
2018-03-20T14:18:22.664Z,31.01
2018-03-20T14:20:52.223Z,31.00
2018-03-20T14:23:21.457Z,31.04
2018-03-20T14:25:52.625Z,31.08
2018-03-20T14:28:22.244Z,31.06
2018-03-20T14:30:51.688Z,30.94
2018-03-20T14:33:21.082Z,30.84
2018-03-20T14:35:50.549Z,30.80
2018-03-20T14:38:19.616Z,30.52
2018-03-20T14:40:49.087Z,30.51
2018-03-20T14:43:18.469Z,30.50
2018-03-20T14:45:47.969Z,30.47
2018-03-20T14:48:17.359Z,30.33
2018-03-20T14:50:46.942Z,30.23
2018-03-20T14:53:16.159Z,30.13
2018-03-20T14:55:45.773Z,30.03
2018-03-20T14:58:15.134Z,29.98
2018-03-20T15:00:44.191Z,29.95
2018-03-20T15:03:13.959Z,29.92
2018-03-20T15:05:43.265Z,29.78
2018-03-20T15:08:12.631Z,29.60
2018-03-20T15:10:41.877Z,29.75
2018-03-20T15:13:11.240Z,29.91
2018-03-20T15:15:42.349Z,29.86
2018-03-20T15:18:13.315Z,29.90
2018-03-20T15:20:43.148Z,29.86
2018-03-20T15:23:12.323Z,29.87
2018-03-20T15:25:41.457Z,29.84
2018-03-20T15:28:10.407Z,29.80
2018-03-20T15:30:41.368Z,29.87
2018-03-20T15:33:10.596Z,29.73
2018-03-20T15:35:40.060Z,29.77
2018-03-20T15:38:09.384Z,29.71
2018-03-20T15:40:38.638Z,29.58
2018-03-20T15:43:07.946Z,29.69
2018-03-20T15:45:37.313Z,29.73
2018-03-20T15:48:06.834Z,29.75
2018-03-20T15:50:36.226Z,29.72
2018-03-20T15:53:05.500Z,29.61
2018-03-20T15:55:35.292Z,29.72
2018-03-20T15:58:04.737Z,29.82
2018-03-20T16:00:34.290Z,29.81
2018-03-20T16:03:03.497Z,29.83
2018-03-20T16:05:32.936Z,29.84
2018-03-20T16:08:02.685Z,29.78
2018-03-20T16:10:32.163Z,29.78
2018-03-20T16:13:01.485Z,29.66
2018-03-20T16:15:30.850Z,29.54
2018-03-20T16:18:00.688Z,29.53
2018-03-20T16:20:29.710Z,29.46
2018-03-20T16:22:58.860Z,29.52
2018-03-20T16:25:28.795Z,29.44
2018-03-20T16:27:58.374Z,29.61
2018-03-20T16:30:27.601Z,29.56
2018-03-20T16:32:56.944Z,29.49
2018-03-20T16:35:26.053Z,29.56
2018-03-20T16:37:55.330Z,29.50
2018-03-20T16:40:25.117Z,29.50
2018-03-20T16:42:54.297Z,29.57
2018-03-20T16:45:23.898Z,29.47
2018-03-20T16:47:53.418Z,29.42
2018-03-20T16:50:22.869Z,29.43
2018-03-20T16:52:51.907Z,29.35
2018-03-20T16:55:22.183Z,29.33
2018-03-20T16:57:51.542Z,29.28
2018-03-20T17:00:21.228Z,29.24
2018-03-20T17:02:50.549Z,29.20
2018-03-20T17:05:20.200Z,29.12
2018-03-20T17:07:49.499Z,29.09
2018-03-20T17:10:19.507Z,29.13
2018-03-20T17:12:48.964Z,29.01
2018-03-20T17:15:18.599Z,28.96
2018-03-20T17:17:48.029Z,28.94
2018-03-20T17:20:17.246Z,28.93
2018-03-20T17:22:46.837Z,28.79
2018-03-20T17:25:16.106Z,28.78
2018-03-20T17:27:45.341Z,28.81
2018-03-20T17:30:14.846Z,28.82
2018-03-20T17:32:44.257Z,28.94
2018-03-20T17:35:13.776Z,28.90
2018-03-20T17:37:43.203Z,28.81
2018-03-20T17:40:12.849Z,28.79
2018-03-20T17:42:42.429Z,28.81
2018-03-20T17:45:11.777Z,28.77
2018-03-20T17:47:41.104Z,28.75
2018-03-20T17:50:10.197Z,28.64
2018-03-20T17:52:39.415Z,28.67
2018-03-20T17:55:08.498Z,28.75
2018-03-20T17:57:37.614Z,28.76
2018-03-20T18:00:06.969Z,28.69
2018-03-20T18:02:36.261Z,28.65
2018-03-20T18:05:06.145Z,28.70
2018-03-20T18:07:35.520Z,28.70
2018-03-20T18:10:05.405Z,28.59
2018-03-20T18:12:34.856Z,28.54
2018-03-20T18:15:04.150Z,28.50
2018-03-20T18:17:33.348Z,28.46
2018-03-20T18:20:02.569Z,28.43
2018-03-20T18:22:31.762Z,28.45
2018-03-20T18:25:01.063Z,28.38
2018-03-20T18:27:30.287Z,28.40
2018-03-20T18:29:59.647Z,28.38
2018-03-20T18:32:28.816Z,28.38
2018-03-20T18:34:58.389Z,28.27
2018-03-20T18:37:27.785Z,28.25
2018-03-20T18:39:56.974Z,28.26
2018-03-20T18:42:26.467Z,28.22
2018-03-20T18:44:55.964Z,28.23
2018-03-20T18:47:25.466Z,28.15
2018-03-20T18:49:54.800Z,28.19
2018-03-20T18:52:24.237Z,28.22
2018-03-20T18:54:53.558Z,28.13
2018-03-20T18:57:22.520Z,28.13
2018-03-20T18:59:52.031Z,28.21
2018-03-20T19:02:21.274Z,28.17
2018-03-20T19:04:50.598Z,28.18
2018-03-20T19:07:20.856Z,28.12
2018-03-20T19:09:50.121Z,28.25
2018-03-20T19:12:19.431Z,28.28
2018-03-20T19:14:48.550Z,28.31
2018-03-20T19:17:19.262Z,28.29
2018-03-20T19:19:48.463Z,28.30
2018-03-20T19:22:18.028Z,28.34
2018-03-20T19:24:47.186Z,28.37
2018-03-20T19:27:16.483Z,28.29
2018-03-20T19:29:45.972Z,28.24
2018-03-20T19:32:15.247Z,28.24
2018-03-20T19:34:44.725Z,28.20
2018-03-20T19:37:14.069Z,28.21
2018-03-20T19:39:43.710Z,28.17
2018-03-20T19:42:12.954Z,28.22
2018-03-20T19:44:42.154Z,28.16
2018-03-20T19:47:11.475Z,28.15
2018-03-20T19:49:40.886Z,28.14
2018-03-20T19:52:10.014Z,28.05
2018-03-20T19:54:39.065Z,28.06
2018-03-20T19:57:08.712Z,28.03
2018-03-20T19:59:37.993Z,28.07
2018-03-20T20:02:07.390Z,28.01
2018-03-20T20:04:36.939Z,27.91
2018-03-20T20:07:06.389Z,27.86
2018-03-20T20:09:35.746Z,27.88
2018-03-20T20:12:05.047Z,27.92
2018-03-20T20:14:34.517Z,27.94
2018-03-20T20:17:03.756Z,27.91
2018-03-20T20:19:32.667Z,27.91
2018-03-20T20:22:02.023Z,27.85
2018-03-20T20:24:31.174Z,27.89
2018-03-20T20:27:00.510Z,27.93
2018-03-20T20:29:29.693Z,27.88
2018-03-20T20:31:58.939Z,27.85
2018-03-20T20:34:28.485Z,27.87
2018-03-20T20:36:57.738Z,27.84
2018-03-20T20:39:26.844Z,27.78
2018-03-20T20:41:56.112Z,27.75
2018-03-20T20:44:25.505Z,27.72
2018-03-20T20:46:54.967Z,27.72
2018-03-20T20:49:24.425Z,27.66
2018-03-20T20:51:54.143Z,27.65
2018-03-20T20:54:23.704Z,27.65
2018-03-20T20:56:52.736Z,27.70
2018-03-20T20:59:22.862Z,27.72
2018-03-20T21:01:52.349Z,27.64
2018-03-20T21:04:21.757Z,27.59
2018-03-20T21:06:50.993Z,27.49
2018-03-20T21:09:20.538Z,27.47
2018-03-20T21:11:49.743Z,27.41
2018-03-20T21:14:19.189Z,27.35
2018-03-20T21:16:48.330Z,27.33
2018-03-20T21:19:17.619Z,27.26
2018-03-20T21:21:47.645Z,27.30
2018-03-20T21:24:16.866Z,27.36
2018-03-20T21:26:46.271Z,27.36
2018-03-20T21:29:15.502Z,27.32
2018-03-20T21:31:44.681Z,27.33
2018-03-20T21:34:14.181Z,27.23
2018-03-20T21:36:43.555Z,27.17
2018-03-20T21:39:13.044Z,27.11
2018-03-20T21:41:42.198Z,27.14
2018-03-20T21:44:11.672Z,27.19
2018-03-20T21:46:41.099Z,27.25
2018-03-20T21:49:10.464Z,27.32
2018-03-20T21:51:39.752Z,27.31
2018-03-20T21:54:09.266Z,27.30
2018-03-20T21:56:38.782Z,27.28
2018-03-20T21:59:13.348Z,27.12
2018-03-20T22:01:42.645Z,26.53
2018-03-20T22:04:11.839Z,26.29
2018-03-20T22:06:41.055Z,25.76
2018-03-20T22:09:10.390Z,25.87
2018-03-20T22:11:39.776Z,25.98
2018-03-20T22:14:09.272Z,25.57
2018-03-20T22:16:38.507Z,25.86
2018-03-20T22:19:08.065Z,26.07
2018-03-20T22:21:37.330Z,26.09
2018-03-20T22:24:06.768Z,25.95
2018-03-20T22:26:36.433Z,25.97
2018-03-20T22:29:05.465Z,25.83
2018-03-20T22:31:34.531Z,25.83
2018-03-20T22:34:04.091Z,25.92
2018-03-20T22:36:33.140Z,25.52
2018-03-20T22:39:02.639Z,25.46
2018-03-20T22:41:32.207Z,25.55
2018-03-20T22:44:01.559Z,25.45
2018-03-20T22:46:31.008Z,25.08
2018-03-20T22:49:00.220Z,25.43
2018-03-20T22:51:29.478Z,25.48
2018-03-20T22:53:58.929Z,25.45
2018-03-20T22:56:28.189Z,25.47
2018-03-20T22:58:57.422Z,25.60
2018-03-20T23:01:26.958Z,25.56
2018-03-20T23:03:56.275Z,25.70
2018-03-20T23:06:25.471Z,25.70
2018-03-20T23:08:54.986Z,25.66
2018-03-20T23:11:24.385Z,25.70
2018-03-20T23:13:53.495Z,25.64
2018-03-20T23:16:22.768Z,25.65
2018-03-20T23:18:52.174Z,25.72
2018-03-20T23:21:21.628Z,25.57
2018-03-20T23:23:51.019Z,25.63
2018-03-20T23:26:20.360Z,25.71
2018-03-20T23:28:49.669Z,25.54
2018-03-20T23:31:19.002Z,25.56
2018-03-20T23:33:47.995Z,25.62
2018-03-20T23:36:17.592Z,25.61
2018-03-20T23:38:46.777Z,25.58
2018-03-20T23:41:16.237Z,25.08
2018-03-20T23:43:45.372Z,25.36
2018-03-20T23:46:14.730Z,25.35
2018-03-20T23:48:44.057Z,25.36
2018-03-20T23:51:13.570Z,25.30
2018-03-20T23:53:42.795Z,25.32
2018-03-20T23:56:12.122Z,25.32
2018-03-20T23:58:41.474Z,25.31
